createdAt,value
2022-12-01T00:00:59.243Z,10.20
2022-12-01T00:03:33.451Z,11.00
2022-12-01T00:06:04.803Z,11.40
2022-12-01T00:08:37.715Z,11.40
2022-12-01T00:11:05.920Z,10.60
2022-12-01T00:13:36.333Z,11.70
2022-12-01T00:16:13.458Z,10.90
2022-12-01T00:18:43.439Z,10.30
2022-12-01T00:21:17.163Z,10.60
2022-12-01T00:23:51.206Z,10.60
2022-12-01T00:26:22.371Z,11.00
2022-12-01T00:28:53.112Z,10.90
2022-12-01T00:31:23.248Z,11.00
2022-12-01T00:33:53.252Z,11.70
2022-12-01T00:36:23.121Z,10.70
2022-12-01T00:38:58.419Z,11.40
2022-12-01T00:41:28.687Z,10.50
2022-12-01T00:43:58.429Z,10.70
2022-12-01T00:46:28.268Z,9.90
2022-12-01T00:48:58.108Z,10.10
2022-12-01T00:51:27.926Z,10.40
2022-12-01T00:54:00.376Z,10.90
2022-12-01T00:56:30.226Z,10.50
2022-12-01T00:59:00.124Z,10.10
2022-12-01T01:01:29.905Z,9.90
2022-12-01T01:04:01.333Z,8.60
2022-12-01T01:06:31.108Z,8.90
2022-12-01T01:09:03.550Z,8.40
2022-12-01T01:11:33.389Z,8.90
2022-12-01T01:14:03.452Z,8.90
2022-12-01T01:16:33.612Z,8.90
2022-12-01T01:19:03.914Z,8.00
2022-12-01T01:21:33.818Z,8.00
2022-12-01T01:24:06.554Z,8.60
2022-12-01T01:26:37.325Z,8.00
2022-12-01T01:29:08.847Z,8.10
2022-12-01T01:31:39.249Z,8.60
2022-12-01T01:34:08.996Z,8.10
2022-12-01T01:36:38.795Z,8.10
2022-12-01T01:39:11.203Z,8.00
2022-12-01T01:41:41.064Z,8.50
2022-12-01T01:44:40.748Z,8.00
2022-12-01T01:47:10.654Z,8.10
2022-12-01T01:49:40.907Z,8.30
2022-12-01T01:52:11.074Z,9.10
2022-12-01T01:54:48.129Z,8.40
2022-12-01T01:57:23.947Z,9.20
2022-12-01T01:59:57.191Z,8.00
2022-12-01T02:02:27.847Z,8.40
2022-12-01T02:05:01.786Z,8.10
2022-12-01T02:07:32.234Z,8.10
2022-12-01T02:10:04.766Z,7.90
2022-12-01T02:12:51.519Z,7.90
2022-12-01T02:15:33.053Z,7.00
2022-12-01T02:18:18.061Z,7.80
2022-12-01T02:21:16.244Z,7.00
2022-12-01T02:24:09.280Z,6.20
2022-12-01T02:26:51.871Z,6.90
2022-12-01T02:29:44.444Z,6.10
2022-12-01T02:32:24.496Z,6.40
2022-12-01T02:34:59.915Z,4.90
2022-12-01T02:37:36.503Z,5.70
2022-12-01T02:40:15.125Z,3.50
2022-12-01T02:42:54.319Z,4.60
2022-12-01T02:45:31.606Z,4.90
2022-12-01T02:48:07.507Z,3.90
2022-12-01T02:50:40.640Z,4.10
2022-12-01T02:53:18.192Z,4.10
2022-12-01T02:55:52.925Z,4.10
2022-12-01T02:58:23.444Z,4.40
2022-12-01T03:01:06.264Z,4.70
2022-12-01T03:03:51.996Z,5.20
2022-12-01T03:06:31.212Z,5.90
2022-12-01T03:09:12.963Z,5.60
2022-12-01T03:11:52.273Z,5.60
2022-12-01T03:14:35.086Z,5.50
2022-12-01T03:17:10.433Z,5.80
2022-12-01T03:19:47.238Z,6.60
2022-12-01T03:22:24.880Z,6.50
2022-12-01T03:24:58.427Z,7.00
2022-12-01T03:27:32.543Z,6.30
2022-12-01T03:30:10.289Z,5.60
2022-12-01T03:32:46.655Z,6.10
2022-12-01T03:35:27.045Z,6.40
2022-12-01T03:38:00.084Z,6.60
2022-12-01T03:40:32.671Z,5.40
2022-12-01T03:43:07.436Z,5.20
2022-12-01T03:45:44.654Z,5.60
2022-12-01T03:48:14.624Z,6.10
2022-12-01T03:50:57.973Z,6.10
2022-12-01T03:53:35.567Z,5.40
2022-12-01T03:56:08.627Z,4.50
2022-12-01T03:58:42.905Z,5.80
2022-12-01T04:01:13.228Z,5.30
2022-12-01T04:03:43.081Z,6.10
2022-12-01T04:06:15.440Z,6.60
2022-12-01T04:08:45.316Z,6.60
2022-12-01T04:11:32.413Z,6.00
2022-12-01T04:14:02.380Z,6.30
2022-12-01T04:16:32.158Z,6.90
2022-12-01T04:19:01.957Z,7.20
2022-12-01T04:21:34.321Z,7.30
2022-12-01T04:24:04.095Z,7.70
2022-12-01T04:26:36.444Z,6.70
2022-12-01T04:29:08.596Z,6.80
2022-12-01T04:31:38.707Z,7.60
2022-12-01T04:34:09.163Z,7.80
2022-12-01T04:36:41.566Z,7.80
2022-12-01T04:39:11.384Z,7.80
2022-12-01T04:41:41.143Z,9.90
2022-12-01T04:44:12.445Z,9.80
2022-12-01T04:46:42.667Z,9.60
2022-12-01T04:49:12.531Z,10.80
2022-12-01T04:51:44.964Z,11.30
2022-12-01T04:54:15.868Z,11.50
2022-12-01T04:56:45.750Z,11.40
2022-12-01T04:59:15.608Z,11.30
2022-12-01T05:01:46.758Z,11.30
2022-12-01T05:04:17.423Z,11.60
2022-12-01T05:06:49.777Z,12.20
2022-12-01T05:09:21.232Z,11.20
2022-12-01T05:11:51.063Z,12.30
2022-12-01T05:14:20.856Z,11.30
2022-12-01T05:16:50.680Z,11.20
2022-12-01T05:19:32.992Z,11.30
2022-12-01T05:22:05.391Z,11.30
2022-12-01T05:24:35.131Z,11.30
2022-12-01T05:27:04.896Z,10.20
2022-12-01T05:29:35.941Z,10.30
2022-12-01T05:32:06.043Z,9.60
2022-12-01T05:34:35.821Z,10.10
2022-12-01T05:37:08.347Z,11.20
2022-12-01T05:39:38.108Z,11.10
2022-12-01T05:42:08.053Z,10.20
2022-12-01T05:44:37.867Z,9.90
2022-12-01T05:47:07.753Z,10.10
2022-12-01T05:49:37.521Z,10.10
2022-12-01T05:52:10.008Z,10.20
2022-12-01T05:54:39.819Z,10.70
2022-12-01T05:57:09.597Z,10.00
2022-12-01T05:59:39.342Z,10.30
2022-12-01T06:02:09.145Z,10.30
2022-12-01T06:04:38.935Z,11.10
2022-12-01T06:07:11.337Z,11.30
2022-12-01T06:09:41.135Z,11.20
2022-12-01T06:12:10.965Z,11.80
2022-12-01T06:14:40.912Z,11.30
2022-12-01T06:17:11.538Z,11.40
2022-12-01T06:19:43.347Z,11.60
2022-12-01T06:22:15.756Z,11.70
2022-12-01T06:24:45.599Z,11.70
2022-12-01T06:27:15.484Z,11.80
2022-12-01T06:29:45.263Z,11.30
2022-12-01T06:32:15.193Z,11.20
2022-12-01T06:34:44.928Z,11.50
2022-12-01T06:37:17.919Z,11.90
2022-12-01T06:39:48.123Z,11.70
2022-12-01T06:42:18.228Z,11.80
2022-12-01T06:44:48.149Z,11.90
2022-12-01T06:47:18.167Z,12.50
2022-12-01T06:49:51.044Z,11.50
2022-12-01T06:52:23.844Z,11.90
2022-12-01T06:54:53.626Z,12.10
2022-12-01T06:57:23.537Z,12.10
2022-12-01T06:59:53.500Z,12.30
2022-12-01T07:02:23.601Z,12.20
2022-12-01T07:04:53.405Z,12.30
2022-12-01T07:07:25.819Z,13.10
2022-12-01T07:09:55.652Z,12.20
2022-12-01T07:12:25.506Z,13.30
2022-12-01T07:14:55.270Z,12.10
2022-12-01T07:17:25.140Z,12.40
2022-12-01T07:19:55.014Z,11.90
2022-12-01T07:22:32.381Z,12.80
2022-12-01T07:25:02.663Z,12.10
2022-12-01T07:27:33.474Z,12.10
2022-12-01T07:30:03.325Z,13.00
2022-12-01T07:32:33.245Z,12.50
2022-12-01T07:35:03.047Z,12.80
2022-12-01T07:37:35.480Z,12.80
2022-12-01T07:40:05.313Z,12.20
2022-12-01T07:42:35.060Z,12.40
2022-12-01T07:45:04.917Z,11.40
2022-12-01T07:47:34.699Z,12.20
2022-12-01T07:50:04.494Z,12.10
2022-12-01T07:52:36.931Z,12.10
2022-12-01T07:55:07.264Z,12.10
2022-12-01T07:57:37.023Z,12.50
2022-12-01T08:00:08.092Z,12.80
2022-12-01T08:02:37.994Z,13.00
2022-12-01T08:05:08.476Z,12.40
2022-12-01T08:07:41.072Z,12.30
2022-12-01T08:10:11.740Z,12.70
2022-12-01T08:12:41.592Z,12.30
2022-12-01T08:15:12.481Z,12.10
2022-12-01T08:17:42.281Z,11.80
2022-12-01T08:20:12.814Z,11.90
2022-12-01T08:22:45.380Z,11.80
2022-12-01T08:25:15.317Z,12.00
2022-12-01T08:27:45.108Z,12.40
2022-12-01T08:30:16.448Z,12.20
2022-12-01T08:32:46.487Z,12.00
2022-12-01T08:35:16.220Z,12.10
2022-12-01T08:37:48.580Z,11.40
2022-12-01T08:40:19.370Z,11.70
2022-12-01T08:42:49.223Z,11.70
2022-12-01T08:45:19.130Z,11.40
2022-12-01T08:47:49.537Z,12.80
2022-12-01T08:50:19.880Z,11.40
2022-12-01T08:52:52.285Z,11.90
2022-12-01T08:55:22.805Z,12.40
2022-12-01T08:57:52.580Z,12.80
2022-12-01T09:00:22.519Z,11.40
2022-12-01T09:02:52.345Z,11.40
2022-12-01T09:05:22.088Z,11.50
2022-12-01T09:08:14.539Z,11.50
2022-12-01T09:10:44.358Z,11.50
2022-12-01T09:13:14.137Z,10.50
2022-12-01T09:15:43.928Z,10.50
2022-12-01T09:18:13.727Z,11.10
2022-12-01T09:20:43.536Z,11.40
2022-12-01T09:23:15.917Z,10.60
2022-12-01T09:25:45.729Z,10.50
2022-12-01T09:28:15.516Z,11.10
2022-12-01T09:30:45.266Z,11.00
2022-12-01T09:33:15.785Z,10.70
2022-12-01T09:35:45.617Z,10.60
2022-12-01T09:38:18.066Z,10.70
2022-12-01T09:40:48.259Z,10.20
2022-12-01T09:43:22.735Z,10.90
2022-12-01T09:45:57.180Z,11.30
2022-12-01T09:48:29.259Z,11.40
2022-12-01T09:50:59.231Z,10.60
2022-12-01T09:53:32.081Z,11.40
2022-12-01T09:56:08.536Z,9.10
2022-12-01T09:58:41.902Z,9.80
2022-12-01T10:01:21.659Z,10.60
2022-12-01T10:03:58.548Z,11.20
2022-12-01T10:06:34.777Z,9.50
2022-12-01T10:09:18.521Z,9.70
2022-12-01T10:11:50.371Z,8.80
2022-12-01T10:14:22.197Z,8.10
2022-12-01T10:17:03.605Z,7.90
2022-12-01T10:19:40.983Z,8.10
2022-12-01T10:22:27.909Z,9.00
2022-12-01T10:25:07.347Z,8.90
2022-12-01T10:27:49.097Z,8.40
2022-12-01T10:30:20.564Z,9.10
2022-12-01T10:32:58.232Z,8.10
2022-12-01T10:35:35.913Z,8.50
2022-12-01T10:38:10.410Z,9.80
2022-12-01T10:40:43.727Z,9.70
2022-12-01T10:43:14.172Z,9.40
2022-12-01T10:45:46.980Z,8.70
2022-12-01T10:48:19.185Z,8.70
2022-12-01T10:50:50.951Z,8.30
2022-12-01T10:53:32.752Z,8.10
2022-12-01T10:56:09.525Z,7.20
2022-12-01T10:58:47.888Z,6.60
2022-12-01T11:01:24.443Z,7.30
2022-12-01T11:03:58.053Z,8.20
2022-12-01T11:06:30.656Z,7.20
2022-12-01T11:09:02.725Z,8.20
2022-12-01T11:11:37.994Z,7.60
2022-12-01T11:14:10.249Z,7.90
2022-12-01T11:16:43.952Z,8.30
2022-12-01T11:19:27.480Z,7.90
2022-12-01T11:21:59.300Z,8.30
2022-12-01T11:24:41.941Z,7.20
2022-12-01T11:27:20.909Z,6.90
2022-12-01T11:29:53.404Z,6.40
2022-12-01T11:32:26.959Z,7.50
2022-12-01T11:35:00.560Z,5.50
2022-12-01T11:37:34.059Z,6.00
2022-12-01T11:40:12.753Z,5.50
2022-12-01T11:42:51.024Z,6.50
2022-12-01T11:45:29.200Z,6.00
2022-12-01T11:48:04.629Z,5.40
2022-12-01T11:50:36.779Z,5.80
2022-12-01T11:53:07.339Z,5.20
2022-12-01T11:55:37.261Z,5.10
2022-12-01T11:58:11.899Z,5.00
2022-12-01T12:00:46.575Z,4.90
2022-12-01T12:03:23.909Z,5.20
2022-12-01T12:06:39.032Z,4.90
2022-12-01T12:09:33.616Z,4.90
2022-12-01T12:12:13.591Z,4.90
2022-12-01T12:15:00.271Z,4.90
2022-12-01T12:17:52.269Z,4.90
2022-12-01T12:20:41.009Z,5.60
2022-12-01T12:23:40.133Z,5.40
2022-12-01T12:26:17.172Z,4.90
2022-12-01T12:29:07.153Z,4.90
2022-12-01T12:31:58.749Z,5.30
2022-12-01T12:34:38.921Z,4.70
2022-12-01T12:37:20.101Z,4.40
2022-12-01T12:40:12.144Z,5.10
2022-12-01T12:42:54.494Z,4.20
2022-12-01T12:45:31.959Z,4.50
2022-12-01T12:48:17.149Z,5.00
2022-12-01T12:50:55.674Z,4.90
2022-12-01T12:53:30.985Z,5.10
2022-12-01T12:56:05.207Z,5.00
2022-12-01T12:58:38.623Z,5.00
2022-12-01T13:01:13.845Z,5.00
2022-12-01T13:03:52.330Z,5.00
2022-12-01T13:06:27.890Z,5.30
2022-12-01T13:09:04.088Z,5.00
2022-12-01T13:11:38.607Z,5.00
2022-12-01T13:14:10.168Z,5.40
2022-12-01T13:16:43.293Z,6.00
2022-12-01T13:19:19.408Z,5.30
2022-12-01T13:21:52.745Z,5.80
2022-12-01T13:24:24.237Z,5.50
2022-12-01T13:26:59.669Z,6.30
2022-12-01T13:29:41.050Z,6.70
2022-12-01T13:32:30.144Z,6.90
2022-12-01T13:35:06.266Z,7.30
2022-12-01T13:37:37.903Z,6.60
2022-12-01T13:40:14.960Z,6.10
2022-12-01T13:42:45.294Z,7.30
2022-12-01T13:45:21.272Z,6.60
2022-12-01T13:47:54.434Z,7.20
2022-12-01T13:50:56.767Z,7.00
2022-12-01T13:53:35.100Z,6.70
2022-12-01T13:56:24.644Z,6.90
2022-12-01T13:58:56.948Z,7.40
2022-12-01T14:01:47.126Z,7.80
2022-12-01T14:04:34.460Z,6.40
2022-12-01T14:07:30.159Z,7.00
2022-12-01T14:10:10.427Z,6.60
2022-12-01T14:12:42.944Z,7.50
2022-12-01T14:15:31.501Z,7.00
2022-12-01T14:18:03.801Z,7.90
2022-12-01T14:20:37.853Z,8.50
2022-12-01T14:23:20.989Z,7.90
2022-12-01T14:26:17.110Z,8.40
2022-12-01T14:29:22.780Z,8.30
2022-12-01T14:32:06.185Z,7.60
2022-12-01T14:34:37.398Z,8.00
2022-12-01T14:37:10.345Z,8.40
2022-12-01T14:39:46.012Z,8.60
2022-12-01T14:42:56.952Z,8.70
2022-12-01T14:45:31.655Z,8.80
2022-12-01T14:48:05.267Z,8.70
2022-12-01T14:50:45.070Z,9.00
2022-12-01T14:53:25.877Z,8.60
2022-12-01T14:56:00.738Z,8.70
2022-12-01T14:58:32.401Z,9.20
2022-12-01T15:01:09.542Z,9.30
2022-12-01T15:03:43.628Z,8.80
2022-12-01T15:06:18.767Z,9.60
2022-12-01T15:09:10.465Z,9.70
2022-12-01T15:11:52.277Z,9.50
2022-12-01T15:14:33.977Z,9.60
2022-12-01T15:17:05.741Z,9.70
2022-12-01T15:19:38.790Z,10.30
2022-12-01T15:22:17.312Z,10.60
2022-12-01T15:24:48.568Z,10.70
2022-12-01T15:27:31.752Z,10.90
2022-12-01T15:30:04.466Z,10.30
2022-12-01T15:32:38.341Z,10.30
2022-12-01T15:35:10.203Z,10.80
2022-12-01T15:37:45.632Z,12.30
2022-12-01T15:43:20.028Z,12.00
2022-12-01T15:45:52.934Z,10.80
2022-12-01T15:48:30.499Z,11.30
2022-12-01T15:51:08.205Z,12.10
2022-12-01T15:53:42.686Z,11.50
2022-12-01T15:56:14.337Z,12.00
2022-12-01T15:58:49.447Z,11.90
2022-12-01T16:01:21.525Z,11.40
2022-12-01T16:03:55.210Z,11.30
2022-12-01T16:06:28.078Z,12.00
2022-12-01T16:09:00.413Z,11.80
2022-12-01T16:11:30.781Z,12.40
2022-12-01T16:14:08.191Z,12.60
2022-12-01T16:16:44.129Z,13.90
2022-12-01T16:19:32.638Z,14.30
2022-12-01T16:22:07.647Z,15.60
2022-12-01T16:24:41.216Z,16.10
2022-12-01T16:27:21.273Z,16.30
2022-12-01T16:29:55.894Z,17.30
2022-12-01T16:32:26.757Z,18.30
2022-12-01T16:34:57.044Z,19.40
2022-12-01T16:37:27.204Z,19.40
2022-12-01T16:39:57.088Z,19.30
2022-12-01T16:42:27.044Z,20.70
2022-12-01T16:44:59.552Z,20.80
2022-12-01T16:47:29.323Z,22.10
2022-12-01T16:49:59.106Z,21.80
2022-12-01T16:52:45.632Z,22.60
2022-12-01T16:55:27.258Z,23.30
2022-12-01T16:57:57.644Z,23.60
2022-12-01T17:00:30.155Z,23.00
2022-12-01T17:03:00.513Z,22.70
2022-12-01T17:05:30.638Z,24.10
2022-12-01T17:08:00.459Z,23.30
2022-12-01T17:10:30.351Z,23.30
2022-12-01T17:13:00.390Z,23.50
2022-12-01T17:15:32.829Z,23.70
2022-12-01T17:18:02.918Z,24.50
2022-12-01T17:20:32.708Z,23.40
2022-12-01T17:23:02.540Z,23.50
2022-12-01T17:25:32.353Z,23.60
2022-12-01T17:28:02.507Z,24.30
2022-12-01T17:30:34.930Z,23.80
2022-12-01T17:33:04.768Z,23.10
2022-12-01T17:35:35.101Z,23.30
2022-12-01T17:38:04.890Z,23.10
2022-12-01T17:40:34.922Z,23.20
2022-12-01T17:43:04.932Z,23.50
2022-12-01T17:45:41.972Z,23.40
2022-12-01T17:48:11.873Z,24.50
2022-12-01T17:50:41.721Z,24.20
2022-12-01T17:53:11.468Z,22.90
2022-12-01T17:55:42.136Z,23.60
2022-12-01T17:58:11.902Z,24.00
2022-12-01T18:00:44.365Z,23.40
2022-12-01T18:03:14.256Z,24.00
2022-12-01T18:05:44.234Z,24.10
2022-12-01T18:08:14.284Z,24.70
2022-12-01T18:10:44.203Z,24.90
2022-12-01T18:13:14.019Z,24.40
2022-12-01T18:15:46.587Z,24.40
2022-12-01T18:18:16.657Z,24.90
2022-12-01T18:20:47.681Z,25.60
2022-12-01T18:23:17.455Z,25.90
2022-12-01T18:25:47.263Z,25.30
2022-12-01T18:28:17.161Z,24.40
2022-12-01T18:30:49.703Z,25.70
2022-12-01T18:33:20.991Z,25.80
2022-12-01T18:35:50.750Z,26.30
2022-12-01T18:38:20.554Z,26.40
2022-12-01T18:40:50.348Z,25.90
2022-12-01T18:43:20.096Z,25.90
2022-12-01T18:45:52.626Z,26.20
2022-12-01T18:48:22.410Z,26.50
2022-12-01T18:50:57.878Z,26.90
2022-12-01T18:53:29.176Z,26.70
2022-12-01T18:55:59.229Z,27.10
2022-12-01T18:58:29.054Z,27.70
2022-12-01T19:01:01.896Z,27.50
2022-12-01T19:03:32.050Z,27.70
2022-12-01T19:06:01.868Z,27.90
2022-12-01T19:08:31.624Z,28.50
2022-12-01T19:11:02.153Z,28.70
2022-12-01T19:13:33.524Z,29.20
2022-12-01T19:16:08.551Z,29.50
2022-12-01T19:18:39.009Z,29.30
2022-12-01T19:21:11.132Z,29.50
2022-12-01T19:23:41.575Z,29.50
2022-12-01T19:26:14.390Z,29.70
2022-12-01T19:28:45.755Z,30.00
2022-12-01T19:31:20.185Z,29.70
2022-12-01T19:33:50.193Z,29.90
2022-12-01T19:36:21.788Z,29.80
2022-12-01T19:38:51.971Z,29.80
2022-12-01T19:41:25.368Z,29.70
2022-12-01T19:43:55.843Z,30.50
2022-12-01T19:46:29.708Z,30.10
2022-12-01T19:49:01.555Z,30.10
2022-12-01T19:51:35.163Z,30.60
2022-12-01T19:54:05.784Z,30.20
2022-12-01T19:56:35.735Z,30.50
2022-12-01T19:59:07.832Z,30.60
2022-12-01T20:01:40.734Z,30.60
2022-12-01T20:04:10.935Z,29.20
2022-12-01T20:06:41.100Z,29.40
2022-12-01T20:09:11.271Z,29.40
2022-12-01T20:11:41.087Z,29.30
2022-12-01T20:14:12.412Z,28.90
2022-12-01T20:16:44.919Z,29.10
2022-12-01T20:19:14.707Z,29.20
2022-12-01T20:21:45.091Z,28.60
2022-12-01T20:24:18.551Z,29.20
2022-12-01T20:26:51.983Z,29.20
2022-12-01T20:29:26.877Z,28.40
2022-12-01T20:32:01.144Z,28.10
2022-12-01T20:34:34.269Z,27.90
2022-12-01T20:37:05.071Z,28.00
2022-12-01T20:39:37.807Z,27.60
2022-12-01T20:42:08.140Z,27.40
2022-12-01T20:44:39.993Z,27.80
2022-12-01T20:47:12.637Z,27.50
2022-12-01T20:49:42.436Z,26.80
2022-12-01T20:52:12.203Z,27.10
2022-12-01T20:54:42.495Z,27.20
2022-12-01T20:57:12.332Z,27.30
2022-12-01T20:59:42.254Z,26.30
2022-12-01T21:02:15.041Z,26.80
2022-12-01T21:04:44.929Z,26.50
2022-12-01T21:07:14.738Z,26.00
2022-12-01T21:09:44.652Z,26.10
2022-12-01T21:12:29.979Z,26.40
2022-12-01T21:15:08.831Z,26.80
2022-12-01T21:17:46.956Z,26.90
2022-12-01T21:20:25.131Z,26.90
2022-12-01T21:22:55.915Z,26.60
2022-12-01T21:25:26.944Z,26.40
2022-12-01T21:27:59.550Z,26.30
2022-12-01T21:30:29.994Z,26.00
2022-12-01T21:33:19.824Z,25.90
2022-12-01T21:35:53.247Z,26.40
2022-12-01T21:38:23.191Z,26.60
2022-12-01T21:40:53.007Z,26.30
2022-12-01T21:43:24.648Z,25.90
2022-12-01T21:45:58.336Z,25.90
2022-12-01T21:48:34.471Z,26.00
2022-12-01T21:51:07.344Z,26.20
2022-12-01T21:53:41.177Z,25.90
2022-12-01T21:56:16.699Z,26.00
2022-12-01T21:58:47.044Z,26.60
2022-12-01T22:01:22.718Z,26.40
2022-12-01T22:04:01.853Z,26.60
2022-12-01T22:06:38.114Z,26.70
2022-12-01T22:09:16.646Z,25.90
2022-12-01T22:11:50.032Z,25.90
2022-12-01T22:14:23.167Z,26.40
2022-12-01T22:16:57.565Z,26.50
2022-12-01T22:19:35.356Z,26.90
2022-12-01T22:22:24.749Z,26.70
2022-12-01T22:24:56.206Z,26.90
2022-12-01T22:27:31.652Z,27.10
2022-12-01T22:30:04.743Z,27.10
2022-12-01T22:32:54.080Z,27.20
2022-12-01T22:35:29.515Z,27.10
2022-12-01T22:38:18.161Z,27.50
2022-12-01T22:40:58.178Z,27.70
2022-12-01T22:43:35.452Z,27.80
2022-12-01T22:46:23.087Z,28.00
2022-12-01T22:48:54.857Z,28.00
2022-12-01T22:51:39.163Z,27.60
2022-12-01T22:54:41.392Z,27.80
2022-12-01T22:57:34.978Z,27.50
2022-12-01T23:00:16.572Z,27.90
2022-12-01T23:02:46.717Z,27.60
2022-12-01T23:05:24.334Z,27.50
2022-12-01T23:07:58.062Z,28.50
2022-12-01T23:10:31.658Z,27.60
2022-12-01T23:13:11.476Z,27.40
2022-12-01T23:15:42.539Z,27.50
2022-12-01T23:18:16.904Z,27.50
2022-12-01T23:20:49.137Z,27.50
2022-12-01T23:23:23.516Z,27.60
2022-12-01T23:25:53.652Z,27.70
2022-12-01T23:28:23.930Z,27.20
2022-12-01T23:30:57.297Z,27.60
2022-12-01T23:33:28.749Z,27.50
2022-12-01T23:36:02.080Z,27.90
2022-12-01T23:38:39.703Z,28.00
2022-12-01T23:41:13.220Z,27.90
2022-12-01T23:43:45.340Z,28.50
2022-12-01T23:46:18.622Z,28.40
2022-12-01T23:48:52.285Z,29.20
2022-12-01T23:51:25.985Z,29.10
2022-12-01T23:54:00.419Z,28.60
2022-12-01T23:56:34.168Z,28.90
2022-12-01T23:59:04.206Z,28.80
